Time;durP1;ratioP1;P1;durP2;ratioP2;P2;SDS_P1;SDS_P2;PMS_P1;PMS_P2;Temp;Humidity;BMP_temperature;BMP_pressure;BME280_temperature;BME280_humidity;BME280_pressure;Samples;Min_cycle;Max_cycle;Signal;HPM_P1;HPM_P2
2023/05/26 00:01:52;;;;;;;58.37;2.63;;;;;;;;;;5073745;28;20995;-69
2023/05/26 00:04:22;;;;;;;57.70;3.00;;;;;;;;;;5074129;28;20451;-69
2023/05/26 00:06:52;;;;;;;58.00;3.13;;;;;;;;;;5074033;28;20443;-69
2023/05/26 00:09:20;;;;;;;57.17;2.60;;;;;;;;;;5073209;28;20504;-69
2023/05/26 00:11:48;;;;;;;60.63;2.80;;;;;;;;;;5073970;28;20842;-69
2023/05/26 00:14:15;;;;;;;57.50;2.77;;;;;;;;;;5073691;28;20447;-69
2023/05/26 00:16:43;;;;;;;57.90;2.90;;;;;;;;;;5073690;28;20459;-69
2023/05/26 00:19:11;;;;;;;57.57;2.80;;;;;;;;;;5072858;28;20447;-69
2023/05/26 00:21:39;;;;;;;57.83;2.90;;;;;;;;;;5073743;28;20499;-69
2023/05/26 00:24:07;;;;;;;57.43;2.43;;;;;;;;;;5073247;28;21003;-69
2023/05/26 00:26:34;;;;;;;57.43;2.90;;;;;;;;;;5073678;28;20447;-69
2023/05/26 00:29:02;;;;;;;57.60;2.60;;;;;;;;;;5072880;28;20451;-69
2023/05/26 00:31:30;;;;;;;58.17;2.80;;;;;;;;;;5073487;28;20473;-69
2023/05/26 00:33:57;;;;;;;57.83;3.13;;;;;;;;;;5073523;28;20792;-69
2023/05/26 00:36:24;;;;;;;57.33;2.13;;;;;;;;;;5073569;28;20444;-69
2023/05/26 00:38:51;;;;;;;58.27;3.00;;;;;;;;;;5072711;28;20469;-69
2023/05/26 00:41:19;;;;;;;57.40;2.60;;;;;;;;;;5073202;28;20474;-69
2023/05/26 00:43:46;;;;;;;57.43;2.43;;;;;;;;;;5073275;28;20514;-69
2023/05/26 00:46:14;;;;;;;57.87;2.70;;;;;;;;;;5072932;28;20447;-69
2023/05/26 00:48:41;;;;;;;57.50;2.43;;;;;;;;;;5072483;28;20443;-69
2023/05/26 00:51:11;;;;;;;57.70;2.90;;;;;;;;;;5072293;28;20468;-69
2023/05/26 00:53:41;;;;;;;58.57;2.93;;;;;;;;;;5072971;28;20952;-69
2023/05/26 00:56:08;;;;;;;58.00;3.60;;;;;;;;;;5072939;28;20459;-69
2023/05/26 00:58:35;;;;;;;57.40;2.60;;;;;;;;;;5071932;28;20893;-69
2023/05/26 01:01:03;;;;;;;59.20;3.27;;;;;;;;;;5072679;28;20467;-69
2023/05/26 01:03:31;;;;;;;58.70;3.67;;;;;;;;;;5072904;28;20482;-69
2023/05/26 01:05:58;;;;;;;57.50;2.50;;;;;;;;;;5072885;28;20457;-69
2023/05/26 01:08:25;;;;;;;58.83;3.00;;;;;;;;;;5072653;28;20456;-69
2023/05/26 01:10:53;;;;;;;57.60;2.60;;;;;;;;;;5072082;28;20450;-69
2023/05/26 01:13:23;;;;;;;57.87;2.80;;;;;;;;;;5072455;28;20952;-69
2023/05/26 01:15:52;;;;;;;57.60;2.80;;;;;;;;;;5072760;28;20469;-69
2023/05/26 01:18:24;;;;;;;57.80;2.70;;;;;;;;;;5072604;28;20448;-69
2023/05/26 01:20:56;;;;;;;57.53;2.57;;;;;;;;;;5072358;28;20459;-69
2023/05/26 01:23:34;;;;;;;57.50;2.50;;;;;;;;;;5072175;28;20503;-69
2023/05/26 01:26:16;;;;;;;57.50;2.60;;;;;;;;;;5072543;28;20502;-69
2023/05/26 01:28:45;;;;;;;57.23;2.60;;;;;;;;;;5069524;28;20528;-69
2023/05/26 01:31:12;;;;;;;57.53;2.90;;;;;;;;;;5072258;28;20880;-69
2023/05/26 01:33:39;;;;;;;57.97;3.10;;;;;;;;;;5072085;28;20961;-69
2023/05/26 01:36:07;;;;;;;57.37;2.50;;;;;;;;;;5068877;28;20504;-69
2023/05/26 01:38:34;;;;;;;57.40;2.50;;;;;;;;;;5071367;28;20454;-69
2023/05/26 01:41:04;;;;;;;57.57;2.80;;;;;;;;;;5072223;28;20459;-69
2023/05/26 01:43:35;;;;;;;58.20;3.13;;;;;;;;;;5072003;28;20506;-69
2023/05/26 01:46:07;;;;;;;57.37;2.40;;;;;;;;;;5072001;28;20436;-69
2023/05/26 01:48:35;;;;;;;58.20;2.70;;;;;;;;;;5071538;28;20500;-69
2023/05/26 01:51:03;;;;;;;58.67;2.90;;;;;;;;;;5072088;28;20467;-69
2023/05/26 01:53:31;;;;;;;57.17;2.33;;;;;;;;;;5071883;28;20443;-69
2023/05/26 01:55:59;;;;;;;57.70;2.87;;;;;;;;;;5071809;28;20448;-69
2023/05/26 01:58:27;;;;;;;57.30;2.60;;;;;;;;;;5071781;28;20462;-69
2023/05/26 02:00:55;;;;;;;57.47;2.70;;;;;;;;;;5071383;28;20467;-69
2023/05/26 02:03:23;;;;;;;57.87;2.97;;;;;;;;;;5070938;28;20521;-69
2023/05/26 02:05:50;;;;;;;57.37;2.60;;;;;;;;;;5071657;28;20801;-69
2023/05/26 02:08:17;;;;;;;57.60;2.80;;;;;;;;;;5071498;28;20448;-69
2023/05/26 02:10:44;;;;;;;57.30;2.30;;;;;;;;;;5070651;28;20448;-69
2023/05/26 02:13:11;;;;;;;57.47;2.60;;;;;;;;;;5071815;28;20444;-69
2023/05/26 02:15:39;;;;;;;57.30;2.60;;;;;;;;;;5071348;28;20952;-69
2023/05/26 02:18:06;;;;;;;57.27;2.60;;;;;;;;;;5071311;28;20443;-69
2023/05/26 02:20:34;;;;;;;57.20;2.30;;;;;;;;;;5070725;28;20451;-69
2023/05/26 02:23:02;;;;;;;61.30;3.37;;;;;;;;;;5071238;28;20489;-69
2023/05/26 02:25:29;;;;;;;57.13;2.63;;;;;;;;;;5071132;28;20806;-69
2023/05/26 02:27:56;;;;;;;57.80;3.50;;;;;;;;;;5071478;28;20457;-69
2023/05/26 02:30:23;;;;;;;64.03;3.30;;;;;;;;;;5070447;28;20455;-69
2023/05/26 02:32:50;;;;;;;57.30;2.30;;;;;;;;;;5071319;28;20469;-69
2023/05/26 02:35:17;;;;;;;57.27;2.50;;;;;;;;;;5071139;28;20455;-69
2023/05/26 02:37:47;;;;;;;59.17;4.53;;;;;;;;;;5071434;28;20447;-69
2023/05/26 02:40:14;;;;;;;57.50;2.60;;;;;;;;;;5070250;28;20459;-69
2023/05/26 02:42:41;;;;;;;57.50;2.80;;;;;;;;;;5071182;28;20976;-69
2023/05/26 02:45:09;;;;;;;57.40;2.50;;;;;;;;;;5071143;28;20470;-69
2023/05/26 02:47:37;;;;;;;57.50;2.40;;;;;;;;;;5071209;28;20451;-69
2023/05/26 02:50:04;;;;;;;57.50;2.93;;;;;;;;;;5070365;28;20455;-69
2023/05/26 02:52:32;;;;;;;57.50;3.07;;;;;;;;;;5070767;28;20483;-69
2023/05/26 02:55:00;;;;;;;57.50;2.70;;;;;;;;;;5071251;28;20446;-69
2023/05/26 02:57:27;;;;;;;57.80;2.60;;;;;;;;;;5070943;28;20451;-69
2023/05/26 02:59:54;;;;;;;57.57;3.17;;;;;;;;;;5070408;28;20451;-69
2023/05/26 03:02:21;;;;;;;57.80;2.87;;;;;;;;;;5070814;28;20470;-69
2023/05/26 03:04:48;;;;;;;58.37;4.40;;;;;;;;;;5071086;28;20490;-69
2023/05/26 03:07:15;;;;;;;57.50;3.17;;;;;;;;;;5070964;28;20455;-69
2023/05/26 03:09:43;;;;;;;60.20;3.70;;;;;;;;;;5070103;28;20456;-69
2023/05/26 03:12:15;;;;;;;57.37;2.63;;;;;;;;;;5070947;28;20486;-69
2023/05/26 03:14:42;;;;;;;57.40;2.60;;;;;;;;;;5071911;28;20447;-69
2023/05/26 03:17:10;;;;;;;57.57;2.80;;;;;;;;;;5075108;28;20443;-69
2023/05/26 03:19:37;;;;;;;57.63;2.90;;;;;;;;;;5073965;28;20831;-69
2023/05/26 03:22:05;;;;;;;58.57;3.10;;;;;;;;;;5074613;28;20566;-69
2023/05/26 03:24:32;;;;;;;57.37;2.90;;;;;;;;;;5074512;28;20487;-69
2023/05/26 03:26:59;;;;;;;57.70;2.53;;;;;;;;;;5074631;28;20932;-69
2023/05/26 03:29:29;;;;;;;57.57;2.77;;;;;;;;;;5074097;28;20457;-69
2023/05/26 03:31:56;;;;;;;57.90;3.17;;;;;;;;;;5074516;28;20473;-69
2023/05/26 03:34:24;;;;;;;57.57;2.87;;;;;;;;;;5074363;28;20951;-69
2023/05/26 03:36:53;;;;;;;58.00;3.90;;;;;;;;;;5074379;28;20455;-69
2023/05/26 03:39:21;;;;;;;57.77;2.90;;;;;;;;;;5073605;28;20487;-69
2023/05/26 03:41:49;;;;;;;57.70;2.50;;;;;;;;;;5074318;28;20541;-69
2023/05/26 03:44:18;;;;;;;58.00;3.00;;;;;;;;;;5074381;28;20478;-69
2023/05/26 03:46:47;;;;;;;57.43;3.00;;;;;;;;;;5073966;28;20485;-69
2023/05/26 03:49:14;;;;;;;58.97;3.73;;;;;;;;;;5073362;28;20974;-69
2023/05/26 03:51:41;;;;;;;57.27;2.50;;;;;;;;;;5074035;28;20477;-69
2023/05/26 03:54:09;;;;;;;62.60;5.03;;;;;;;;;;5074058;28;20447;-69
2023/05/26 03:56:36;;;;;;;59.60;4.50;;;;;;;;;;5074095;28;20471;-69
2023/05/26 03:59:03;;;;;;;57.97;3.20;;;;;;;;;;5073203;28;20451;-69
2023/05/26 04:01:30;;;;;;;57.70;3.67;;;;;;;;;;5073745;28;20558;-69
2023/05/26 04:03:59;;;;;;;57.90;3.27;;;;;;;;;;5074065;28;20514;-69
2023/05/26 04:06:27;;;;;;;58.07;3.53;;;;;;;;;;5073944;28;20828;-69
2023/05/26 04:08:54;;;;;;;57.57;2.80;;;;;;;;;;5073021;28;20470;-68
2023/05/26 04:11:22;;;;;;;59.50;3.50;;;;;;;;;;5073499;28;20467;-68
2023/05/26 04:13:49;;;;;;;57.70;3.23;;;;;;;;;;5073572;28;20504;-68
2023/05/26 04:16:16;;;;;;;58.47;3.90;;;;;;;;;;5073680;28;21007;-68
2023/05/26 04:18:43;;;;;;;58.00;3.63;;;;;;;;;;5073229;28;20612;-68
2023/05/26 04:21:12;;;;;;;57.07;2.60;;;;;;;;;;5073499;28;20463;-68
2023/05/26 04:23:39;;;;;;;57.70;3.37;;;;;;;;;;5073570;28;20489;-68
2023/05/26 04:26:06;;;;;;;57.57;3.10;;;;;;;;;;5072852;28;20436;-68
2023/05/26 04:28:34;;;;;;;58.73;3.30;;;;;;;;;;5072626;28;21016;-68
2023/05/26 04:31:03;;;;;;;57.50;2.57;;;;;;;;;;5073645;28;20532;-68
2023/05/26 04:33:30;;;;;;;57.17;2.20;;;;;;;;;;5073404;28;20443;-68
2023/05/26 04:35:57;;;;;;;57.37;2.60;;;;;;;;;;5073644;28;20448;-68
2023/05/26 04:38:26;;;;;;;58.70;3.10;;;;;;;;;;5073229;28;20508;-68
2023/05/26 04:40:57;;;;;;;58.07;3.90;;;;;;;;;;5072543;28;20952;-68
2023/05/26 04:43:24;;;;;;;58.20;3.40;;;;;;;;;;5073068;28;20451;-68
2023/05/26 04:45:51;;;;;;;57.60;2.93;;;;;;;;;;5073455;28;20450;-70
2023/05/26 04:48:20;;;;;;;57.80;2.90;;;;;;;;;;5073138;28;20447;-70
2023/05/26 04:50:47;;;;;;;57.80;3.60;;;;;;;;;;5072723;28;20462;-70
2023/05/26 04:53:14;;;;;;;57.47;2.57;;;;;;;;;;5072977;28;20487;-70
2023/05/26 04:55:44;;;;;;;57.17;2.50;;;;;;;;;;5072868;28;20490;-70
2023/05/26 04:58:11;;;;;;;57.70;3.30;;;;;;;;;;5073098;28;20455;-70
2023/05/26 05:00:38;;;;;;;57.60;2.67;;;;;;;;;;5072344;28;20455;-70
2023/05/26 05:03:06;;;;;;;58.27;3.00;;;;;;;;;;5072742;28;20455;-70
2023/05/26 05:05:33;;;;;;;58.20;3.33;;;;;;;;;;5072949;28;20487;-70
2023/05/26 05:08:00;;;;;;;57.27;2.60;;;;;;;;;;5073103;28;20457;-70
2023/05/26 05:10:27;;;;;;;57.53;3.10;;;;;;;;;;5072275;28;20481;-70
2023/05/26 05:12:55;;;;;;;57.27;2.73;;;;;;;;;;5072566;28;20559;-70
2023/05/26 05:15:22;;;;;;;58.13;3.33;;;;;;;;;;5072874;28;20535;-70
2023/05/26 05:17:50;;;;;;;57.70;3.37;;;;;;;;;;5072612;28;20944;-70
2023/05/26 05:20:17;;;;;;;57.37;3.17;;;;;;;;;;5071664;28;20958;-70
2023/05/26 05:22:45;;;;;;;57.33;2.63;;;;;;;;;;5072247;28;20514;-70
2023/05/26 05:25:12;;;;;;;58.17;2.87;;;;;;;;;;5072183;28;20523;-70
2023/05/26 05:27:39;;;;;;;58.00;2.83;;;;;;;;;;5072507;28;20836;-70
2023/05/26 05:30:09;;;;;;;57.70;3.00;;;;;;;;;;5071640;28;20446;-70
2023/05/26 05:32:36;;;;;;;57.43;3.00;;;;;;;;;;5072134;28;20471;-70
2023/05/26 05:35:03;;;;;;;57.73;3.17;;;;;;;;;;5072091;28;20793;-70
2023/05/26 05:37:30;;;;;;;57.53;2.77;;;;;;;;;;5072417;28;20443;-70
2023/05/26 05:39:57;;;;;;;57.50;3.60;;;;;;;;;;5071259;28;20454;-69
2023/05/26 05:42:24;;;;;;;57.33;2.60;;;;;;;;;;5072037;28;20469;-69
2023/05/26 05:44:51;;;;;;;57.77;3.10;;;;;;;;;;5071880;28;21011;-70
2023/05/26 05:47:20;;;;;;;57.80;3.10;;;;;;;;;;5071979;28;20798;-69
2023/05/26 05:49:47;;;;;;;57.60;2.97;;;;;;;;;;5070893;28;20451;-69
2023/05/26 05:52:14;;;;;;;57.33;2.37;;;;;;;;;;5071953;28;20467;-68
2023/05/26 05:54:41;;;;;;;59.10;3.03;;;;;;;;;;5071749;28;20452;-69
2023/05/26 05:57:08;;;;;;;60.43;4.07;;;;;;;;;;5071693;28;20951;-69
2023/05/26 05:59:36;;;;;;;57.10;2.63;;;;;;;;;;5071214;28;20449;-69
2023/05/26 06:02:03;;;;;;;58.90;3.70;;;;;;;;;;5071797;28;20467;-69
2023/05/26 06:04:31;;;;;;;57.43;3.17;;;;;;;;;;5071757;28;20494;-69
2023/05/26 06:06:58;;;;;;;58.40;3.50;;;;;;;;;;5071551;28;20447;-70
2023/05/26 06:09:25;;;;;;;57.00;2.60;;;;;;;;;;5070766;28;20454;-69
2023/05/26 06:11:52;;;;;;;57.30;3.13;;;;;;;;;;5071411;28;20980;-70
2023/05/26 06:14:19;;;;;;;57.17;3.03;;;;;;;;;;5071469;28;20948;-69
2023/05/26 06:16:46;;;;;;;57.70;3.03;;;;;;;;;;5071783;28;20974;-69
2023/05/26 06:19:13;;;;;;;57.87;3.90;;;;;;;;;;5070822;28;20772;-69
2023/05/26 06:21:42;;;;;;;59.20;2.70;;;;;;;;;;5071444;28;20474;-69
2023/05/26 06:24:09;;;;;;;57.30;3.10;;;;;;;;;;5071055;28;20983;-69
2023/05/26 06:26:36;;;;;;;58.50;3.13;;;;;;;;;;5071341;28;20558;-69
2023/05/26 06:29:04;;;;;;;57.03;2.93;;;;;;;;;;5070469;28;20943;-68
2023/05/26 06:31:31;;;;;;;58.30;3.57;;;;;;;;;;5071052;28;20518;-67
2023/05/26 06:33:58;;;;;;;57.17;2.50;;;;;;;;;;5071461;28;20819;-67
2023/05/26 06:36:25;;;;;;;57.00;2.60;;;;;;;;;;5071434;28;20458;-67
2023/05/26 06:38:54;;;;;;;58.27;2.97;;;;;;;;;;5070364;28;20453;-67
2023/05/26 06:41:21;;;;;;;58.07;2.87;;;;;;;;;;5071135;28;20463;-67
2023/05/26 06:43:48;;;;;;;58.30;3.90;;;;;;;;;;5071143;28;20462;-68
2023/05/26 06:46:15;;;;;;;57.37;2.70;;;;;;;;;;5071352;28;20452;-68
2023/05/26 06:48:42;;;;;;;57.20;2.60;;;;;;;;;;5070360;28;20447;-68
2023/05/26 06:51:09;;;;;;;57.90;3.10;;;;;;;;;;5070894;28;20463;-67
2023/05/26 06:53:37;;;;;;;57.40;3.60;;;;;;;;;;5070975;28;20460;-68
2023/05/26 06:56:05;;;;;;;56.97;2.33;;;;;;;;;;5071037;28;20818;-68
2023/05/26 06:58:33;;;;;;;57.50;4.10;;;;;;;;;;5070385;28;20448;-67
2023/05/26 07:01:00;;;;;;;57.17;2.97;;;;;;;;;;5071190;28;20463;-67
2023/05/26 07:03:28;;;;;;;57.60;3.30;;;;;;;;;;5071239;28;20473;-68
2023/05/26 07:05:55;;;;;;;57.07;2.23;;;;;;;;;;5070831;28;20479;-67
2023/05/26 07:08:22;;;;;;;58.57;4.93;;;;;;;;;;5070844;28;20830;-67
2023/05/26 07:10:49;;;;;;;58.70;3.80;;;;;;;;;;5070034;28;21014;-67
2023/05/26 07:13:18;;;;;;;62.40;3.10;;;;;;;;;;5071346;28;20451;-68
2023/05/26 07:15:45;;;;;;;57.90;2.77;;;;;;;;;;5070985;28;20462;-68
2023/05/26 07:18:12;;;;;;;57.53;3.07;;;;;;;;;;5070875;28;20455;-68
2023/05/26 07:20:40;;;;;;;57.30;3.00;;;;;;;;;;5069937;28;20447;-68
2023/05/26 07:23:07;;;;;;;58.37;2.93;;;;;;;;;;5070664;28;20443;-68
2023/05/26 07:25:34;;;;;;;57.10;2.60;;;;;;;;;;5070409;28;20494;-68
2023/05/26 07:28:01;;;;;;;58.03;3.03;;;;;;;;;;5070751;28;20469;-69
2023/05/26 07:30:29;;;;;;;57.40;2.70;;;;;;;;;;5070100;28;20816;-69
2023/05/26 07:32:57;;;;;;;57.43;2.77;;;;;;;;;;5070484;28;20483;-69
2023/05/26 07:35:24;;;;;;;58.30;3.60;;;;;;;;;;5070607;28;20444;-68
2023/05/26 07:37:51;;;;;;;57.20;2.63;;;;;;;;;;5070725;28;20804;-69
2023/05/26 07:40:18;;;;;;;57.27;2.70;;;;;;;;;;5069727;28;20447;-68
2023/05/26 07:42:45;;;;;;;57.43;3.13;;;;;;;;;;5070764;28;20497;-68
2023/05/26 07:45:12;;;;;;;57.40;2.90;;;;;;;;;;5070721;28;20475;-69
2023/05/26 07:47:41;;;;;;;57.27;2.40;;;;;;;;;;5070545;28;20830;-69
2023/05/26 07:50:08;;;;;;;57.60;2.70;;;;;;;;;;5069801;28;20451;-69
2023/05/26 07:52:35;;;;;;;59.20;3.37;;;;;;;;;;5069900;28;20474;-69
2023/05/26 07:55:02;;;;;;;57.23;2.60;;;;;;;;;;5070418;28;21198;-69
2023/05/26 07:57:30;;;;;;;57.17;2.40;;;;;;;;;;5070551;28;20454;-69
2023/05/26 07:59:57;;;;;;;57.03;2.20;;;;;;;;;;5069733;28;20444;-69
2023/05/26 08:02:24;;;;;;;57.70;3.00;;;;;;;;;;5072193;28;20468;-69
2023/05/26 08:04:52;;;;;;;58.70;3.20;;;;;;;;;;5074090;28;20479;-69
2023/05/26 08:07:19;;;;;;;57.60;3.03;;;;;;;;;;5073654;28;20455;-68
2023/05/26 08:09:47;;;;;;;57.70;3.27;;;;;;;;;;5073341;28;20450;-69
2023/05/26 08:12:14;;;;;;;57.47;3.00;;;;;;;;;;5073919;28;20473;-69
2023/05/26 08:14:41;;;;;;;57.27;2.70;;;;;;;;;;5073883;28;20443;-69
2023/05/26 08:17:08;;;;;;;57.50;2.60;;;;;;;;;;5073724;28;20461;-69
2023/05/26 08:19:36;;;;;;;59.07;3.40;;;;;;;;;;5073058;28;20481;-68
2023/05/26 08:22:05;;;;;;;58.20;4.10;;;;;;;;;;5073510;28;21002;-69
2023/05/26 08:24:32;;;;;;;57.40;2.50;;;;;;;;;;5073343;28;20451;-69
2023/05/26 08:26:59;;;;;;;56.77;2.40;;;;;;;;;;5073506;28;20458;-69
2023/05/26 08:29:26;;;;;;;58.67;2.73;;;;;;;;;;5072668;28;20958;-69
2023/05/26 08:31:53;;;;;;;62.90;3.10;;;;;;;;;;5073778;28;20469;-69
2023/05/26 08:34:20;;;;;;;57.50;2.73;;;;;;;;;;5072973;28;20448;-69
2023/05/26 08:36:48;;;;;;;57.20;2.70;;;;;;;;;;5073509;28;20439;-69
2023/05/26 08:39:16;;;;;;;57.40;2.60;;;;;;;;;;5072841;28;20443;-69
2023/05/26 08:41:45;;;;;;;57.90;2.67;;;;;;;;;;5073245;28;21066;-69
2023/05/26 08:44:12;;;;;;;57.47;2.63;;;;;;;;;;5073517;28;20451;-69
2023/05/26 08:46:40;;;;;;;57.90;2.83;;;;;;;;;;5073410;28;20483;-69
2023/05/26 08:49:09;;;;;;;57.13;2.40;;;;;;;;;;5072394;28;20451;-69
2023/05/26 08:51:37;;;;;;;57.97;3.10;;;;;;;;;;5072773;28;21015;-69
2023/05/26 08:54:04;;;;;;;57.37;2.67;;;;;;;;;;5073276;28;20524;-69
2023/05/26 08:56:33;;;;;;;57.77;2.60;;;;;;;;;;5073279;28;20459;-69
2023/05/26 08:59:01;;;;;;;57.20;2.63;;;;;;;;;;5072653;28;20448;-69
2023/05/26 09:01:28;;;;;;;57.90;3.63;;;;;;;;;;5072945;28;20479;-69
2023/05/26 09:03:55;;;;;;;58.33;2.57;;;;;;;;;;5073169;28;20854;-69
2023/05/26 09:06:22;;;;;;;57.53;2.83;;;;;;;;;;5072798;28;20490;-69
2023/05/26 09:08:49;;;;;;;57.37;3.17;;;;;;;;;;5071916;28;20455;-69
2023/05/26 09:11:20;;;;;;;57.90;3.20;;;;;;;;;;5072891;28;20868;-69
2023/05/26 09:13:53;;;;;;;58.60;3.30;;;;;;;;;;5072360;28;20453;-69
2023/05/26 09:16:22;;;;;;;57.47;3.40;;;;;;;;;;5072778;28;20447;-69
2023/05/26 09:18:49;;;;;;;57.10;2.57;;;;;;;;;;5072023;28;20452;-69
2023/05/26 09:21:17;;;;;;;56.87;2.50;;;;;;;;;;5072618;28;20467;-70
2023/05/26 09:23:48;;;;;;;57.47;2.90;;;;;;;;;;5072488;28;20463;-69
2023/05/26 09:26:17;;;;;;;57.27;3.03;;;;;;;;;;5072310;28;20487;-69
2023/05/26 09:28:48;;;;;;;57.60;2.70;;;;;;;;;;5071779;28;20880;-69
2023/05/26 09:31:17;;;;;;;57.17;2.50;;;;;;;;;;5072216;28;20467;-69
2023/05/26 09:33:46;;;;;;;57.43;3.00;;;;;;;;;;5072287;28;20785;-70
2023/05/26 09:36:14;;;;;;;57.20;2.47;;;;;;;;;;5072126;28;20439;-70
2023/05/26 09:38:43;;;;;;;56.97;2.40;;;;;;;;;;5071286;28;20546;-69
2023/05/26 09:41:10;;;;;;;58.47;3.60;;;;;;;;;;5072168;28;20485;-70
2023/05/26 09:43:38;;;;;;;56.97;2.30;;;;;;;;;;5072203;28;20498;-70
2023/05/26 09:46:07;;;;;;;60.88;3.22;;;;;;;;;;5071618;28;20996;-69
2023/05/26 09:48:37;;;;;;;58.10;3.10;;;;;;;;;;5071290;28;20882;-70
2023/05/26 09:51:04;;;;;;;56.93;2.57;;;;;;;;;;5071991;28;20470;-70
2023/05/26 09:53:31;;;;;;;57.63;2.87;;;;;;;;;;5071674;28;20505;-69
2023/05/26 09:56:01;;;;;;;57.97;3.47;;;;;;;;;;5071727;28;20517;-69
2023/05/26 09:58:29;;;;;;;58.13;2.83;;;;;;;;;;5071649;28;20456;-70
2023/05/26 10:00:57;;;;;;;59.30;3.03;;;;;;;;;;5071444;28;20453;-69
2023/05/26 10:03:24;;;;;;;57.17;2.73;;;;;;;;;;5071952;28;20455;-70
2023/05/26 10:05:56;;;;;;;57.23;2.83;;;;;;;;;;5071922;28;20483;-70
2023/05/26 10:08:26;;;;;;;57.27;2.90;;;;;;;;;;5071775;28;20538;-69
2023/05/26 10:10:53;;;;;;;57.13;2.60;;;;;;;;;;5071142;28;20497;-70
2023/05/26 10:13:20;;;;;;;57.83;2.70;;;;;;;;;;5071444;28;20947;-70
2023/05/26 10:15:49;;;;;;;58.30;3.67;;;;;;;;;;5071904;28;20534;-70
2023/05/26 10:18:16;;;;;;;57.30;2.77;;;;;;;;;;5071842;28;20453;-69
2023/05/26 10:20:46;;;;;;;57.93;3.10;;;;;;;;;;5070464;28;20477;-70
2023/05/26 10:23:18;;;;;;;56.93;2.30;;;;;;;;;;5071568;28;20447;-70
2023/05/26 10:25:51;;;;;;;56.87;2.30;;;;;;;;;;5071287;28;20476;-70
2023/05/26 10:28:24;;;;;;;56.47;2.00;;;;;;;;;;5071231;28;20448;-70
2023/05/26 10:30:59;;;;;;;56.70;2.27;;;;;;;;;;5070839;28;20836;-69
2023/05/26 10:33:37;;;;;;;57.07;2.20;;;;;;;;;;5071245;28;20455;-70
2023/05/26 10:36:07;;;;;;;57.57;3.10;;;;;;;;;;5071556;28;20433;-70
2023/05/26 10:38:39;;;;;;;56.67;2.20;;;;;;;;;;5070771;28;20538;-70
2023/05/26 10:41:11;;;;;;;60.40;2.33;;;;;;;;;;5071162;28;20474;-70
2023/05/26 10:43:39;;;;;;;57.60;3.27;;;;;;;;;;5071591;28;20447;-70
2023/05/26 10:46:07;;;;;;;56.93;2.43;;;;;;;;;;5071221;28;20890;-70
2023/05/26 10:48:38;;;;;;;59.60;3.70;;;;;;;;;;5070447;28;20451;-70
2023/05/26 10:51:06;;;;;;;58.80;2.90;;;;;;;;;;5071104;28;20977;-71
2023/05/26 10:53:35;;;;;;;56.60;2.50;;;;;;;;;;5071074;28;20470;-70
2023/05/26 10:56:04;;;;;;;56.50;2.47;;;;;;;;;;5070854;28;20513;-70
2023/05/26 10:58:35;;;;;;;56.77;2.10;;;;;;;;;;5070383;28;20549;-70
2023/05/26 11:01:02;;;;;;;57.87;3.30;;;;;;;;;;5071115;28;20467;-70
2023/05/26 11:03:33;;;;;;;56.67;2.40;;;;;;;;;;5071008;28;20443;-71
2023/05/26 11:06:00;;;;;;;56.20;2.10;;;;;;;;;;5071036;28;20482;-71
2023/05/26 11:08:28;;;;;;;57.07;2.80;;;;;;;;;;5070654;28;20454;-70
2023/05/26 11:11:02;;;;;;;56.20;2.00;;;;;;;;;;5070617;28;20839;-70
2023/05/26 11:13:44;;;;;;;56.30;2.07;;;;;;;;;;5070781;28;20508;-70
2023/05/26 11:16:12;;;;;;;57.90;2.30;;;;;;;;;;5071092;28;20792;-70
2023/05/26 11:18:40;;;;;;;56.40;2.60;;;;;;;;;;5069918;28;20504;-71
2023/05/26 11:21:08;;;;;;;56.03;1.87;;;;;;;;;;5070892;28;20797;-71
2023/05/26 11:23:37;;;;;;;56.07;2.10;;;;;;;;;;5070616;28;20457;-71
2023/05/26 11:26:11;;;;;;;56.17;2.20;;;;;;;;;;5070871;28;20471;-71
2023/05/26 11:28:41;;;;;;;56.37;2.20;;;;;;;;;;5069943;28;20447;-71
2023/05/26 11:31:13;;;;;;;55.90;2.00;;;;;;;;;;5070842;28;20885;-71
2023/05/26 11:33:41;;;;;;;55.90;2.07;;;;;;;;;;5070807;28;20461;-71
2023/05/26 11:36:09;;;;;;;56.97;2.33;;;;;;;;;;5072286;28;20478;-71
2023/05/26 11:38:36;;;;;;;56.20;2.37;;;;;;;;;;5073775;28;20818;-71
2023/05/26 11:41:04;;;;;;;55.63;2.10;;;;;;;;;;5074564;28;20467;-71
2023/05/26 11:43:31;;;;;;;56.20;1.97;;;;;;;;;;5074374;28;20443;-71
2023/05/26 11:46:01;;;;;;;55.77;2.10;;;;;;;;;;5074316;28;20489;-70
2023/05/26 11:48:35;;;;;;;55.80;2.07;;;;;;;;;;5074209;28;20454;-70
2023/05/26 11:51:02;;;;;;;56.17;2.00;;;;;;;;;;5074105;28;20467;-68
2023/05/26 11:53:30;;;;;;;56.17;2.33;;;;;;;;;;5074165;28;20449;-67
2023/05/26 11:56:05;;;;;;;56.30;1.90;;;;;;;;;;5074178;28;20873;-68
2023/05/26 11:58:33;;;;;;;56.50;2.27;;;;;;;;;;5073383;28;20541;-68
2023/05/26 12:01:01;;;;;;;57.30;2.50;;;;;;;;;;5074162;28;20858;-71
2023/05/26 12:03:29;;;;;;;55.63;1.90;;;;;;;;;;5074163;28;20958;-71
2023/05/26 12:06:07;;;;;;;56.27;2.47;;;;;;;;;;5074102;28;20615;-71
2023/05/26 12:08:43;;;;;;;57.13;2.37;;;;;;;;;;5073103;28;20454;-70
2023/05/26 12:11:13;;;;;;;57.37;2.67;;;;;;;;;;5073674;28;21002;-71
2023/05/26 12:13:40;;;;;;;56.03;2.20;;;;;;;;;;5074034;28;20443;-71
2023/05/26 12:16:18;;;;;;;56.47;2.60;;;;;;;;;;5074040;28;20452;-71
2023/05/26 12:18:45;;;;;;;56.00;2.63;;;;;;;;;;5073389;28;20451;-71
2023/05/26 12:21:13;;;;;;;56.50;2.40;;;;;;;;;;5073576;28;20885;-71
2023/05/26 12:23:42;;;;;;;55.97;2.07;;;;;;;;;;5073453;28;20546;-71
2023/05/26 12:26:15;;;;;;;56.20;2.40;;;;;;;;;;5073718;28;20470;-71
2023/05/26 12:28:43;;;;;;;56.77;2.37;;;;;;;;;;5072978;28;20833;-71
2023/05/26 12:31:10;;;;;;;57.57;3.43;;;;;;;;;;5073628;28;20495;-71
2023/05/26 12:33:37;;;;;;;55.97;2.40;;;;;;;;;;5073446;28;20538;-71
2023/05/26 12:36:05;;;;;;;55.97;2.20;;;;;;;;;;5073237;28;20447;-71
2023/05/26 12:38:41;;;;;;;57.90;3.07;;;;;;;;;;5072943;28;20496;-70
2023/05/26 12:41:08;;;;;;;56.17;2.70;;;;;;;;;;5073206;28;20470;-71
2023/05/26 12:43:36;;;;;;;57.03;2.13;;;;;;;;;;5073270;28;20501;-69
2023/05/26 12:46:03;;;;;;;55.97;2.23;;;;;;;;;;5073087;28;20487;-68
2023/05/26 12:48:31;;;;;;;56.37;1.97;;;;;;;;;;5071890;28;20454;-68
2023/05/26 12:50:58;;;;;;;57.30;2.30;;;;;;;;;;5072973;28;20900;-69
2023/05/26 12:53:25;;;;;;;55.97;2.50;;;;;;;;;;5073315;28;20454;-68
2023/05/26 12:55:54;;;;;;;56.27;2.40;;;;;;;;;;5072984;28;20916;-68
2023/05/26 12:58:21;;;;;;;56.30;2.10;;;;;;;;;;5072891;28;20448;-68
2023/05/26 13:00:49;;;;;;;55.50;2.00;;;;;;;;;;5072374;28;20456;-69
2023/05/26 13:03:16;;;;;;;55.43;1.90;;;;;;;;;;5073029;28;20856;-68
2023/05/26 13:05:43;;;;;;;55.77;2.30;;;;;;;;;;5073024;28;20456;-69
2023/05/26 13:08:10;;;;;;;56.03;2.50;;;;;;;;;;5072590;28;21007;-68
2023/05/26 13:10:38;;;;;;;55.67;2.30;;;;;;;;;;5072239;28;20470;-68
2023/05/26 13:13:06;;;;;;;56.77;2.73;;;;;;;;;;5072747;28;20450;-68
2023/05/26 13:15:33;;;;;;;56.07;2.30;;;;;;;;;;5072381;28;20974;-69
2023/05/26 13:18:00;;;;;;;55.90;2.43;;;;;;;;;;5072581;28;20443;-69
2023/05/26 13:20:27;;;;;;;56.17;2.57;;;;;;;;;;5072089;28;20454;-69
2023/05/26 13:22:54;;;;;;;55.37;1.83;;;;;;;;;;5072497;28;20467;-69
2023/05/26 13:25:22;;;;;;;56.40;2.20;;;;;;;;;;5072291;28;21006;-68
2023/05/26 13:27:49;;;;;;;56.30;2.47;;;;;;;;;;5072260;28;20493;-69
2023/05/26 13:30:17;;;;;;;56.00;2.30;;;;;;;;;;5071608;28;20455;-68
2023/05/26 13:32:44;;;;;;;56.07;2.43;;;;;;;;;;5072306;28;20467;-68
2023/05/26 13:35:12;;;;;;;56.00;2.00;;;;;;;;;;5072502;28;20452;-68
2023/05/26 13:37:39;;;;;;;55.80;2.00;;;;;;;;;;5072422;28;20816;-69
2023/05/26 13:40:07;;;;;;;56.20;2.17;;;;;;;;;;5071292;28;20451;-69
2023/05/26 13:42:35;;;;;;;56.50;2.40;;;;;;;;;;5071860;28;20876;-69
2023/05/26 13:45:03;;;;;;;55.90;2.00;;;;;;;;;;5071970;28;20964;-68
2023/05/26 13:47:31;;;;;;;56.00;1.90;;;;;;;;;;5072173;28;20479;-68
2023/05/26 13:49:58;;;;;;;55.90;1.90;;;;;;;;;;5071515;28;20456;-68
2023/05/26 13:52:26;;;;;;;56.43;2.70;;;;;;;;;;5071764;28;20471;-68
2023/05/26 13:54:53;;;;;;;56.00;2.37;;;;;;;;;;5072412;28;20451;-69
2023/05/26 13:57:20;;;;;;;55.67;2.03;;;;;;;;;;5071984;28;20767;-69
2023/05/26 13:59:48;;;;;;;56.00;2.23;;;;;;;;;;5070959;28;20644;-69
2023/05/26 14:02:15;;;;;;;56.70;2.17;;;;;;;;;;5071821;28;20478;-69
2023/05/26 14:04:43;;;;;;;56.00;2.40;;;;;;;;;;5071733;28;20448;-69
2023/05/26 14:07:11;;;;;;;56.13;2.40;;;;;;;;;;5071593;28;20481;-68
2023/05/26 14:09:38;;;;;;;55.70;2.20;;;;;;;;;;5070971;28;20447;-69
2023/05/26 14:12:06;;;;;;;56.10;2.10;;;;;;;;;;5071476;28;20988;-69
2023/05/26 14:14:33;;;;;;;56.50;2.27;;;;;;;;;;5071559;28;20473;-69
2023/05/26 14:17:00;;;;;;;57.13;3.93;;;;;;;;;;5071580;28;20940;-69
2023/05/26 14:19:27;;;;;;;56.00;1.87;;;;;;;;;;5070724;28;20534;-68
2023/05/26 14:21:56;;;;;;;56.70;2.53;;;;;;;;;;5071425;28;21010;-71
2023/05/26 14:24:23;;;;;;;56.30;2.00;;;;;;;;;;5071470;28;20455;-71
2023/05/26 14:26:53;;;;;;;56.90;2.83;;;;;;;;;;5071482;28;20728;-71
2023/05/26 14:29:20;;;;;;;56.47;2.90;;;;;;;;;;5070805;28;20455;-71
2023/05/26 14:31:48;;;;;;;55.97;2.20;;;;;;;;;;5071467;28;20466;-71
2023/05/26 14:34:15;;;;;;;56.60;2.10;;;;;;;;;;5071293;28;20455;-69
2023/05/26 14:36:42;;;;;;;56.87;2.40;;;;;;;;;;5071028;28;20450;-69